Lincoln, NE

10:13 AM CDT on July 05, 2015 (GMT -0500)
Capitol Beach | | Change Station
CLOSE
Current Station
Personal Weather Station
Location: Lincoln, NE
Elevation: 1134 ft
Nearby Weather Stations

Elev 1134 ft 40.82 °N, 96.73 °W | Updated 46 seconds ago

Clear
Clear
75.7 °F
Feels Like 76 °F
N
0.0
Wind Variable Wind from SE
Gusts 6.0 mph

Today
High -- | Low -- °F
--% Chance of Precip.
Yesterday
High -- | Low -- °F
Precip. -- in
6:01 AM 9:01 PM
Waning Gibbous, 84% visible
Pressure 29.89 in
Visibility 7.0 miles
Clouds Clear
Heat Index 76 °F
Dew Point 70 °F
Humidity 82%
Rainfall 0.00 in
Snow Depth Not available.
UV 6 out of 12
Pollen 4.30 out of 12
Air Quality Not available.
Flu Activity Not available.
METAR KLNK 051454Z 16008KT 7SM CLR 24/21 A2992 RMK AO2 SLP120 T02390206 50003

More Conditions Fewer Conditions

Pressure 29.89 in
Visibility 7.0 miles
Clouds Clear
Heat Index 76 °F
Dew Point 70 °F
Humidity 82%
Rainfall 0.00 in
Snow Depth Not available.
UV 6 out of 12
Pollen 4.30 out of 12
Air Quality Not available.
Flu Activity Not available.
METAR KLNK 051454Z 16008KT 7SM CLR 24/21 A2992 RMK AO2 SLP120 T02390206 50003

More Conditions Fewer Conditions

10-Day Weather Forecast

×

Almanac

Astronomy

Jul. 05, 2015 Rise Set
Actual Time
Civil Twilight
Nautical Twilight
Astronomical Twilight
Moon
Length of Visible Light
Length of Day
Tomorrow will be .
, % of the Moon is Illuminated

Today's Extremes

State Highs State Lows

Community

WunderPhotos

Upload Photos

1,835,282 photos uploaded!

WunderBlogs® & News

Nearby

Air Quality

  Air Quality AQ Index Pollutant
Not available.

Snow Depth

Station Depth Elevation

Earthquake Activity

City Distance Mag. Time & Date
Minimum magnitude displayed is 2.5.

Coastal Water Temperatures

Place Temperature

Stations

Nearby Weather Stations

Station Location Temp. Windchill Dew Point Humidity Wind Precip. Elev Updated Type